createdAt,value
2018-10-03T00:01:08.336Z,9.29
2018-10-03T00:02:18.467Z,9.25
2018-10-03T00:03:28.622Z,9.22
2018-10-03T00:04:38.771Z,9.17
2018-10-03T00:05:48.942Z,9.15
2018-10-03T00:06:59.096Z,9.19
2018-10-03T00:08:09.224Z,9.15
2018-10-03T00:09:19.464Z,9.08
2018-10-03T00:10:29.624Z,9.09
2018-10-03T00:11:39.905Z,9.15
2018-10-03T00:12:50.050Z,9.05
2018-10-03T00:14:00.183Z,9.04
2018-10-03T00:15:10.355Z,8.97
2018-10-03T00:16:20.253Z,9.02
2018-10-03T00:17:30.449Z,9.02
2018-10-03T00:18:40.629Z,9.01
2018-10-03T00:19:50.780Z,9
2018-10-03T00:21:00.896Z,8.98
2018-10-03T00:22:11.025Z,8.93
2018-10-03T00:23:21.223Z,8.98
2018-10-03T00:24:32.634Z,8.9
2018-10-03T00:25:42.751Z,8.93
2018-10-03T00:26:52.911Z,8.95
2018-10-03T00:28:03.089Z,8.77
2018-10-03T00:29:13.321Z,8.71
2018-10-03T00:30:23.504Z,8.84
2018-10-03T00:31:33.417Z,8.79
2018-10-03T00:32:43.272Z,8.79
2018-10-03T00:33:53.420Z,8.82
2018-10-03T00:35:03.810Z,8.75
2018-10-03T00:36:13.739Z,8.8
2018-10-03T00:37:23.862Z,8.71
2018-10-03T00:38:33.415Z,8.68
2018-10-03T00:39:43.467Z,8.74
2018-10-03T00:40:53.587Z,8.8
2018-10-03T00:42:03.719Z,8.66
2018-10-03T00:43:13.610Z,8.66
2018-10-03T00:44:23.419Z,8.63
2018-10-03T00:45:33.537Z,8.58
2018-10-03T00:46:43.672Z,8.63
2018-10-03T00:47:53.546Z,8.61
2018-10-03T00:49:03.683Z,8.63
2018-10-03T00:50:13.557Z,8.52
2018-10-03T00:51:23.684Z,8.61
2018-10-03T00:52:33.859Z,8.57
2018-10-03T00:53:43.989Z,8.53
2018-10-03T00:54:54.158Z,8.58
2018-10-03T00:56:04.346Z,8.55
2018-10-03T00:57:14.641Z,8.52
2018-10-03T00:58:24.802Z,8.61
2018-10-03T00:59:34.953Z,8.53
2018-10-03T01:00:45.314Z,8.5
2018-10-03T01:01:55.533Z,8.48
2018-10-03T01:03:05.725Z,8.49
2018-10-03T01:04:15.863Z,8.53
2018-10-03T01:05:25.772Z,8.5
2018-10-03T01:06:35.952Z,8.53
2018-10-03T01:07:46.120Z,8.55
2018-10-03T01:08:56.331Z,8.61
2018-10-03T01:10:06.528Z,8.58
2018-10-03T01:11:16.884Z,8.52
2018-10-03T01:12:27.013Z,8.58
2018-10-03T01:13:36.783Z,8.53
2018-10-03T01:14:47.197Z,8.5
2018-10-03T01:15:57.322Z,8.57
2018-10-03T01:17:07.499Z,8.49
2018-10-03T01:18:17.677Z,8.58
2018-10-03T01:19:27.878Z,8.57
2018-10-03T01:20:38.040Z,8.49
2018-10-03T01:21:48.186Z,8.53
2018-10-03T01:22:58.306Z,8.5
2018-10-03T01:24:08.460Z,8.46
2018-10-03T01:25:18.567Z,8.52
2018-10-03T01:26:28.712Z,8.5
2018-10-03T01:27:38.607Z,8.45
2018-10-03T01:28:48.745Z,8.49
2018-10-03T01:29:58.967Z,8.43
2018-10-03T01:31:09.290Z,8.4
2018-10-03T01:32:19.439Z,8.42
2018-10-03T01:33:29.803Z,8.35
2018-10-03T01:34:39.655Z,8.39
2018-10-03T01:35:49.807Z,8.42
2018-10-03T01:36:59.664Z,8.37
2018-10-03T01:38:09.856Z,8.28
2018-10-03T01:39:20.185Z,8.3
2018-10-03T01:40:30.389Z,8.25
2018-10-03T01:41:40.276Z,8.28
2018-10-03T01:42:50.151Z,8.1
2018-10-03T01:44:00.286Z,8.15
2018-10-03T01:45:10.402Z,8.17
2018-10-03T01:46:20.253Z,8.21
2018-10-03T01:47:30.387Z,8.23
2018-10-03T01:48:40.512Z,8.16
2018-10-03T01:49:50.282Z,8.13
2018-10-03T01:51:00.465Z,8.16
2018-10-03T01:52:10.707Z,8.13
2018-10-03T01:53:20.873Z,8.03
2018-10-03T01:54:30.736Z,8.06
2018-10-03T01:55:40.861Z,8.05
2018-10-03T01:56:50.777Z,8.07
2018-10-03T01:58:00.739Z,8.05
2018-10-03T01:59:10.928Z,8.05
2018-10-03T02:00:21.078Z,8.02
2018-10-03T02:01:31.221Z,8.06
2018-10-03T02:02:40.786Z,8.05
2018-10-03T02:03:50.908Z,8.02
2018-10-03T02:05:00.788Z,8.09
2018-10-03T02:06:10.906Z,7.99
2018-10-03T02:07:21.218Z,7.97
2018-10-03T02:08:31.406Z,7.98
2018-10-03T02:09:41.617Z,7.98
2018-10-03T02:10:51.501Z,7.97
2018-10-03T02:12:01.619Z,7.88
2018-10-03T02:13:11.770Z,7.98
2018-10-03T02:14:21.952Z,7.97
2018-10-03T02:15:32.178Z,7.9
2018-10-03T02:16:42.046Z,7.97
2018-10-03T02:17:52.220Z,7.98
2018-10-03T02:19:02.391Z,8.02
2018-10-03T02:20:12.531Z,8.02
2018-10-03T02:21:22.769Z,7.91
2018-10-03T02:22:32.961Z,7.97
2018-10-03T02:23:44.324Z,8.03
2018-10-03T02:24:54.466Z,7.92
2018-10-03T02:26:04.353Z,8.02
2018-10-03T02:27:14.502Z,8.02
2018-10-03T02:28:24.368Z,8.02
2018-10-03T02:29:34.477Z,7.97
2018-10-03T02:30:44.334Z,7.98
2018-10-03T02:31:54.493Z,7.98
2018-10-03T02:33:04.604Z,7.92
2018-10-03T02:34:15.753Z,7.91
2018-10-03T02:35:25.916Z,7.95
2018-10-03T02:36:36.345Z,7.98
2018-10-03T02:37:46.460Z,7.92
2018-10-03T02:38:56.580Z,7.91
2018-10-03T02:40:06.767Z,7.92
2018-10-03T02:41:16.927Z,7.95
2018-10-03T02:42:26.808Z,7.95
2018-10-03T02:43:37.072Z,7.87
2018-10-03T02:44:47.291Z,7.91
2018-10-03T02:45:57.469Z,7.98
2018-10-03T02:47:07.619Z,7.91
2018-10-03T02:48:17.864Z,7.87
2018-10-03T02:49:28.079Z,7.98
2018-10-03T02:50:37.954Z,7.91
2018-10-03T02:51:48.082Z,7.94
2018-10-03T02:52:58.278Z,7.97
2018-10-03T02:54:08.169Z,7.94
2018-10-03T02:55:18.290Z,7.97
2018-10-03T02:56:28.506Z,7.91
2018-10-03T02:57:39.118Z,7.94
2018-10-03T02:58:49.241Z,7.98
2018-10-03T02:59:59.401Z,7.94
2018-10-03T03:01:09.522Z,8.03
2018-10-03T03:02:19.840Z,7.98
2018-10-03T03:03:29.977Z,8.02
2018-10-03T03:04:40.190Z,8.02
2018-10-03T03:05:50.424Z,8.06
2018-10-03T03:07:00.563Z,8.06
2018-10-03T03:08:10.417Z,8.03
2018-10-03T03:09:20.798Z,8.06
2018-10-03T03:10:31.157Z,8.09
2018-10-03T03:11:41.009Z,8.03
2018-10-03T03:12:51.188Z,8.03
2018-10-03T03:14:01.561Z,8.13
2018-10-03T03:15:12.049Z,8.05
2018-10-03T03:16:22.317Z,8.13
2018-10-03T03:17:32.540Z,7.98
2018-10-03T03:18:42.698Z,8.1
2018-10-03T03:19:52.854Z,7.97
2018-10-03T03:21:02.996Z,8.13
2018-10-03T03:22:13.127Z,8.09
2018-10-03T03:23:23.271Z,8.06
2018-10-03T03:24:33.385Z,8.03
2018-10-03T03:25:43.497Z,7.91
2018-10-03T03:26:53.832Z,7.92
2018-10-03T03:28:04.081Z,7.92
2018-10-03T03:29:14.211Z,7.9
2018-10-03T03:30:24.377Z,7.92
2018-10-03T03:31:34.616Z,7.95
2018-10-03T03:32:44.811Z,7.95
2018-10-03T03:33:55.004Z,7.84
2018-10-03T03:35:05.114Z,7.84
2018-10-03T03:36:15.030Z,7.87
2018-10-03T03:37:25.392Z,7.82
2018-10-03T03:38:35.536Z,7.82
2018-10-03T03:39:45.748Z,7.82
2018-10-03T03:40:55.991Z,7.85
2018-10-03T03:42:06.173Z,7.84
2018-10-03T03:43:16.041Z,7.85
2018-10-03T03:44:26.240Z,7.8
2018-10-03T03:45:36.362Z,7.9
2018-10-03T03:46:46.526Z,7.9
2018-10-03T03:47:56.716Z,7.87
2018-10-03T03:49:06.981Z,7.9
2018-10-03T03:50:17.185Z,7.85
2018-10-03T03:51:27.345Z,7.84
2018-10-03T03:52:37.463Z,7.82
2018-10-03T03:53:47.595Z,7.9
2018-10-03T03:54:57.724Z,7.73
2018-10-03T03:56:07.843Z,7.82
2018-10-03T03:57:18.058Z,7.82
2018-10-03T03:58:28.342Z,7.88
2018-10-03T03:59:38.197Z,7.88
2018-10-03T04:00:49.293Z,7.85
2018-10-03T04:01:59.179Z,7.84
2018-10-03T04:03:09.035Z,7.82
2018-10-03T04:04:18.566Z,7.87
2018-10-03T04:05:28.696Z,7.82
2018-10-03T04:06:38.960Z,7.8
2018-10-03T04:07:49.179Z,7.87
2018-10-03T04:08:59.356Z,7.76
2018-10-03T04:10:09.611Z,7.84
2018-10-03T04:11:19.997Z,7.87
2018-10-03T04:12:30.143Z,7.87
2018-10-03T04:13:40.443Z,7.87
2018-10-03T04:14:50.340Z,7.87
2018-10-03T04:16:00.473Z,7.85
2018-10-03T04:17:10.426Z,7.9
2018-10-03T04:18:20.615Z,7.88
2018-10-03T04:19:30.415Z,7.87
2018-10-03T04:20:40.028Z,7.88
2018-10-03T04:21:51.239Z,7.79
2018-10-03T04:23:01.423Z,7.9
2018-10-03T04:24:11.311Z,7.84
2018-10-03T04:25:21.102Z,7.87
2018-10-03T04:26:31.223Z,7.8
2018-10-03T04:27:41.365Z,7.82
2018-10-03T04:28:51.241Z,7.87
2018-10-03T04:30:01.449Z,7.8
2018-10-03T04:31:11.653Z,7.87
2018-10-03T04:32:21.802Z,7.77
2018-10-03T04:33:32.051Z,7.84
2018-10-03T04:34:42.239Z,7.79
2018-10-03T04:35:52.271Z,7.85
2018-10-03T04:37:02.386Z,7.84
2018-10-03T04:38:12.524Z,7.88
2018-10-03T04:39:22.669Z,7.85
2018-10-03T04:40:32.597Z,7.8
2018-10-03T04:41:42.777Z,7.84
2018-10-03T04:42:52.901Z,7.82
2018-10-03T04:44:03.064Z,7.82
2018-10-03T04:45:13.364Z,7.8
2018-10-03T04:46:23.604Z,7.9
2018-10-03T04:47:33.468Z,7.84
2018-10-03T04:48:43.422Z,7.77
2018-10-03T04:49:53.608Z,7.8
2018-10-03T04:51:03.738Z,7.82
2018-10-03T04:52:13.874Z,7.74
2018-10-03T04:53:23.995Z,7.76
2018-10-03T04:54:34.156Z,7.76
2018-10-03T04:55:44.327Z,7.82
2018-10-03T04:56:54.527Z,7.79
2018-10-03T04:58:04.711Z,7.72
2018-10-03T04:59:14.857Z,7.74
2018-10-03T05:00:25.018Z,7.77
2018-10-03T05:01:35.143Z,7.72
2018-10-03T05:02:45.295Z,7.77
2018-10-03T05:03:55.438Z,7.77
2018-10-03T05:05:05.571Z,7.8
2018-10-03T05:06:15.709Z,7.76
2018-10-03T05:07:25.809Z,7.73
2018-10-03T05:08:35.948Z,7.87
2018-10-03T05:09:46.084Z,7.88
2018-10-03T05:10:56.230Z,7.84
2018-10-03T05:12:06.474Z,7.82
2018-10-03T05:13:16.703Z,7.9
2018-10-03T05:14:26.865Z,7.88
2018-10-03T05:15:37.079Z,7.85
2018-10-03T05:16:47.549Z,7.87
2018-10-03T05:17:57.682Z,7.87
2018-10-03T05:19:07.817Z,7.8
2018-10-03T05:20:17.998Z,7.79
2018-10-03T05:21:28.261Z,7.9
2018-10-03T05:22:38.429Z,7.8
2018-10-03T05:23:48.808Z,7.87
2018-10-03T05:24:58.670Z,7.87
2018-10-03T05:26:08.788Z,7.84
2018-10-03T05:27:18.943Z,7.84
2018-10-03T05:28:29.078Z,7.84
2018-10-03T05:29:38.940Z,7.88
2018-10-03T05:30:49.276Z,7.84
2018-10-03T05:31:59.437Z,7.84
2018-10-03T05:33:09.694Z,7.84
2018-10-03T05:34:19.983Z,7.85
2018-10-03T05:35:30.100Z,7.82
2018-10-03T05:36:40.219Z,7.84
2018-10-03T05:37:50.097Z,7.88
2018-10-03T05:39:01.187Z,7.8
2018-10-03T05:40:11.317Z,7.85
2018-10-03T05:41:21.432Z,7.87
2018-10-03T05:42:31.592Z,7.84
2018-10-03T05:43:41.922Z,7.9
2018-10-03T05:44:52.034Z,7.87
2018-10-03T05:46:02.172Z,7.98
2018-10-03T05:47:12.328Z,7.94
2018-10-03T05:48:22.554Z,7.92
2018-10-03T05:49:32.785Z,7.98
2018-10-03T05:50:42.941Z,7.98
2018-10-03T05:51:53.192Z,7.88
2018-10-03T05:53:03.361Z,7.97
2018-10-03T05:54:13.503Z,7.99
2018-10-03T05:55:23.365Z,7.99
2018-10-03T05:56:33.511Z,8.02
2018-10-03T05:57:43.378Z,8.09
2018-10-03T05:58:53.546Z,8.13
2018-10-03T06:00:03.700Z,8.12
2018-10-03T06:01:14.071Z,8.13
2018-10-03T06:02:24.198Z,8.16
2018-10-03T06:03:34.360Z,8.17
2018-10-03T06:04:44.269Z,8.16
2018-10-03T06:05:54.383Z,8.17
2018-10-03T06:07:04.543Z,8.21
2018-10-03T06:08:14.661Z,8.2
2018-10-03T06:09:25.069Z,8.15
2018-10-03T06:10:35.218Z,8.17
2018-10-03T06:11:45.107Z,8.24
2018-10-03T06:12:54.606Z,8.28
2018-10-03T06:14:04.282Z,8.24
2018-10-03T06:15:14.536Z,8.3
2018-10-03T06:16:24.739Z,8.34
2018-10-03T06:17:34.989Z,8.32
2018-10-03T06:18:45.033Z,8.43
2018-10-03T06:19:55.856Z,8.45
2018-10-03T06:21:05.719Z,8.4
2018-10-03T06:22:15.601Z,8.45
2018-10-03T06:23:25.504Z,8.4
2018-10-03T06:24:35.385Z,8.42
2018-10-03T06:25:45.596Z,8.39
2018-10-03T06:26:55.462Z,8.32
2018-10-03T06:28:04.760Z,8.39
2018-10-03T06:29:14.559Z,8.32
2018-10-03T06:30:24.152Z,8.42
2018-10-03T06:31:33.662Z,8.45
2018-10-03T06:32:43.523Z,8.45
2018-10-03T06:33:53.383Z,8.52
2018-10-03T06:35:03.266Z,8.55
2018-10-03T06:36:13.435Z,8.55
2018-10-03T06:37:23.575Z,8.52
2018-10-03T06:38:33.715Z,8.52
2018-10-03T06:39:43.890Z,8.57
2018-10-03T06:40:53.757Z,8.67
2018-10-03T06:42:03.952Z,8.55
2018-10-03T06:43:14.127Z,8.58
2018-10-03T06:44:24.071Z,8.64
2018-10-03T06:45:34.109Z,8.6
2018-10-03T06:46:44.546Z,8.66
2018-10-03T06:47:54.721Z,8.74
2018-10-03T06:49:04.987Z,8.75
2018-10-03T06:50:15.111Z,8.71
2018-10-03T06:51:25.041Z,8.75
2018-10-03T06:52:35.340Z,8.89
2018-10-03T06:53:45.170Z,8.95
2018-10-03T06:54:55.068Z,9.01
2018-10-03T06:56:05.260Z,9.01
2018-10-03T06:57:15.467Z,9.12
2018-10-03T06:58:25.631Z,9.16
2018-10-03T06:59:35.793Z,9.2
2018-10-03T07:00:45.930Z,9.26
2018-10-03T07:01:57.040Z,9.33
2018-10-03T07:03:07.434Z,9.33
2018-10-03T07:04:17.619Z,9.41
2018-10-03T07:05:27.775Z,9.42
2018-10-03T07:06:37.975Z,9.41
2018-10-03T07:07:48.114Z,9.44
2018-10-03T07:08:58.246Z,9.53
2018-10-03T07:10:08.181Z,9.5
2018-10-03T07:11:18.369Z,9.63
2018-10-03T07:12:28.595Z,9.62
2018-10-03T07:13:38.834Z,9.66
2018-10-03T07:14:48.994Z,9.8
2018-10-03T07:15:59.128Z,9.92
2018-10-03T07:17:09.282Z,10
2018-10-03T07:18:19.434Z,10.19
2018-10-03T07:19:29.624Z,10.3
2018-10-03T07:20:39.772Z,10.22
2018-10-03T07:21:49.939Z,10.29
2018-10-03T07:23:00.064Z,10.29
2018-10-03T07:24:10.213Z,10.24
2018-10-03T07:25:20.114Z,10.37
2018-10-03T07:26:30.331Z,10.27
2018-10-03T07:27:40.585Z,10.39
2018-10-03T07:28:51.001Z,10.48
2018-10-03T07:30:01.327Z,10.72
2018-10-03T07:31:11.463Z,11.15
2018-10-03T07:32:21.591Z,11.38
2018-10-03T07:33:31.850Z,11.35
2018-10-03T07:34:41.978Z,11.45
2018-10-03T07:35:52.121Z,11.38
2018-10-03T07:37:01.981Z,11.52
2018-10-03T07:38:12.112Z,11.64
2018-10-03T07:39:22.274Z,11.59
2018-10-03T07:40:32.640Z,11.74
2018-10-03T07:41:42.772Z,11.68
2018-10-03T07:42:52.903Z,11.49
2018-10-03T07:44:03.441Z,11.35
2018-10-03T07:45:13.485Z,11.21
2018-10-03T07:46:23.650Z,11.12
2018-10-03T07:47:33.800Z,11.05
2018-10-03T07:48:43.952Z,10.92
2018-10-03T07:49:54.115Z,10.85
2018-10-03T07:51:04.248Z,10.73
2018-10-03T07:52:14.414Z,10.67
2018-10-03T07:53:24.640Z,10.54
2018-10-03T07:54:34.901Z,10.63
2018-10-03T07:55:45.043Z,10.58
2018-10-03T07:56:55.207Z,10.57
2018-10-03T07:58:05.356Z,10.54
2018-10-03T07:59:15.682Z,10.58
2018-10-03T08:00:25.846Z,10.58
2018-10-03T08:01:36.041Z,10.5
2018-10-03T08:02:46.264Z,10.61
2018-10-03T08:03:56.473Z,10.65
2018-10-03T08:05:06.711Z,10.63
2018-10-03T08:06:16.632Z,10.69
2018-10-03T08:07:27.080Z,10.66
2018-10-03T08:08:37.329Z,10.97
2018-10-03T08:09:47.232Z,11.27
2018-10-03T08:10:57.563Z,11.21
2018-10-03T08:12:07.995Z,11.17
2018-10-03T08:13:18.314Z,11.15
2018-10-03T08:14:28.507Z,11.13
2018-10-03T08:15:38.684Z,11.06
2018-10-03T08:16:48.870Z,10.95
2018-10-03T08:18:00.025Z,10.85
2018-10-03T08:19:10.283Z,10.83
2018-10-03T08:20:20.610Z,10.8
2018-10-03T08:21:30.766Z,10.72
2018-10-03T08:22:40.969Z,10.58
2018-10-03T08:23:51.145Z,10.65
2018-10-03T08:25:01.404Z,10.54
2018-10-03T08:26:11.705Z,10.48
2018-10-03T08:27:21.930Z,10.43
2018-10-03T08:28:32.111Z,10.37
2018-10-03T08:29:42.350Z,10.33
2018-10-03T08:30:52.629Z,10.39
2018-10-03T08:32:02.827Z,10.39
2018-10-03T08:33:13.317Z,10.42
2018-10-03T08:34:22.738Z,10.37
2018-10-03T08:35:32.628Z,10.4
2018-10-03T08:36:42.808Z,10.32
2018-10-03T08:37:53.072Z,10.36
2018-10-03T08:39:03.263Z,10.34
2018-10-03T08:40:13.186Z,10.29
2018-10-03T08:41:23.480Z,10.24
2018-10-03T08:42:33.933Z,10.27
2018-10-03T08:43:43.723Z,10.34
2018-10-03T08:44:53.894Z,10.33
2018-10-03T08:46:04.090Z,10.34
2018-10-03T08:47:14.304Z,10.37
2018-10-03T08:48:24.484Z,10.4
2018-10-03T08:49:34.651Z,10.37
2018-10-03T08:50:44.903Z,10.34
2018-10-03T08:51:55.168Z,10.37
2018-10-03T08:53:05.724Z,10.39
2018-10-03T08:54:16.124Z,10.3
2018-10-03T08:55:26.308Z,10.36
2018-10-03T08:56:36.703Z,10.29
2018-10-03T08:57:46.899Z,10.33
2018-10-03T08:58:57.050Z,10.27
2018-10-03T09:00:07.274Z,10.22
2018-10-03T09:01:17.500Z,10.36
2018-10-03T09:02:27.899Z,10.39
2018-10-03T09:03:38.211Z,10.4
2018-10-03T09:04:47.909Z,10.39
2018-10-03T09:05:58.122Z,10.34
2018-10-03T09:07:08.440Z,10.37
2018-10-03T09:08:18.771Z,10.37
2018-10-03T09:09:28.994Z,10.34
2018-10-03T09:10:39.213Z,10.37
2018-10-03T09:11:49.397Z,10.36
2018-10-03T09:12:59.581Z,10.26
2018-10-03T09:14:09.182Z,10.33
2018-10-03T09:15:19.656Z,10.3
2018-10-03T09:16:29.815Z,10.29
2018-10-03T09:17:40.172Z,10.37
2018-10-03T09:18:50.579Z,10.3
2018-10-03T09:20:01.744Z,10.32
2018-10-03T09:21:12.065Z,10.3
2018-10-03T09:22:22.399Z,10.26
2018-10-03T09:23:32.556Z,10.3
2018-10-03T09:24:42.441Z,10.26
2018-10-03T09:25:52.832Z,10.33
2018-10-03T09:27:03.295Z,10.33
2018-10-03T09:28:13.683Z,10.39
2018-10-03T09:29:24.104Z,10.4
2018-10-03T09:30:34.372Z,10.42
2018-10-03T09:31:44.516Z,10.47
2018-10-03T09:32:54.684Z,10.55
2018-10-03T09:34:04.876Z,10.55
2018-10-03T09:35:15.038Z,10.63
2018-10-03T09:36:25.239Z,10.72
2018-10-03T09:37:35.198Z,10.88
2018-10-03T09:38:45.163Z,10.94
2018-10-03T09:39:55.533Z,11.12
2018-10-03T09:41:05.689Z,11.1
2018-10-03T09:42:16.048Z,11.38
2018-10-03T09:43:27.290Z,11.34
2018-10-03T09:44:37.561Z,11.39
2018-10-03T09:45:48.118Z,11.38
2018-10-03T09:46:58.332Z,11.4
2018-10-03T09:48:08.528Z,11.43
2018-10-03T09:49:18.682Z,11.39
2018-10-03T09:50:28.845Z,11.4
2018-10-03T09:51:39.042Z,11.8
2018-10-03T09:52:49.219Z,12.05
2018-10-03T09:53:59.153Z,12.22
2018-10-03T09:55:09.465Z,12.23
2018-10-03T09:56:19.404Z,12.27
2018-10-03T09:57:29.558Z,12.23
2018-10-03T09:58:39.562Z,12.02
2018-10-03T09:59:49.569Z,12.01
2018-10-03T10:01:00.089Z,11.91
2018-10-03T10:02:10.031Z,11.89
2018-10-03T10:03:20.190Z,11.83
2018-10-03T10:04:30.340Z,11.79
2018-10-03T10:05:40.626Z,12.07
2018-10-03T10:06:50.818Z,12.37
2018-10-03T10:08:01.017Z,12.63
2018-10-03T10:09:11.278Z,12.59
2018-10-03T10:10:21.738Z,12.57
2018-10-03T10:11:32.583Z,12.53
2018-10-03T10:12:43.765Z,12.42
2018-10-03T10:13:53.992Z,12.24
2018-10-03T10:15:04.150Z,12.13
2018-10-03T10:16:14.324Z,12.05
2018-10-03T10:17:24.718Z,12.04
2018-10-03T10:18:34.981Z,12.04
2018-10-03T10:19:45.214Z,12.08
2018-10-03T10:20:55.707Z,12.19
2018-10-03T10:22:06.085Z,12.13
2018-10-03T10:23:15.997Z,12.17
2018-10-03T10:24:26.154Z,12.08
2018-10-03T10:25:36.134Z,11.95
2018-10-03T10:26:46.465Z,11.82
2018-10-03T10:27:56.737Z,11.69
2018-10-03T10:29:07.011Z,11.59
2018-10-03T10:30:17.385Z,11.58
2018-10-03T10:31:27.579Z,11.49
2018-10-03T10:32:38.173Z,11.83
2018-10-03T10:33:48.728Z,12.35
2018-10-03T10:34:58.697Z,12.96
2018-10-03T10:36:08.901Z,13.7
2018-10-03T10:37:19.144Z,14.19
2018-10-03T10:38:29.418Z,14.72
2018-10-03T10:39:39.657Z,15.29
2018-10-03T10:40:50.545Z,15.6
2018-10-03T10:42:00.914Z,15.76
2018-10-03T10:43:11.128Z,16.21
2018-10-03T10:44:21.605Z,16.31
2018-10-03T10:45:32.003Z,16.2
2018-10-03T10:46:42.339Z,16.04
2018-10-03T10:47:53.015Z,15.78
2018-10-03T10:49:02.923Z,15.46
2018-10-03T10:50:13.282Z,15.2
2018-10-03T10:51:23.887Z,14.9
2018-10-03T10:52:34.043Z,14.66
2018-10-03T10:53:44.248Z,14.31
2018-10-03T10:54:54.459Z,14.18
2018-10-03T10:56:04.682Z,14.19
2018-10-03T10:57:14.882Z,14.52
2018-10-03T10:58:25.051Z,14.56
2018-10-03T10:59:35.696Z,14.62
2018-10-03T11:00:45.990Z,14.67
2018-10-03T11:01:56.502Z,14.52
2018-10-03T11:03:06.681Z,14.36
2018-10-03T11:04:16.413Z,14.28
2018-10-03T11:05:26.756Z,14.14
2018-10-03T11:06:37.191Z,14.36
2018-10-03T11:07:47.671Z,14.7
2018-10-03T11:08:57.531Z,14.88
2018-10-03T11:10:07.787Z,15.2
2018-10-03T11:11:18.229Z,15.55
2018-10-03T11:12:28.525Z,15.6
2018-10-03T11:13:38.511Z,15.68
2018-10-03T11:14:48.932Z,15.7
2018-10-03T11:15:59.202Z,15.51
2018-10-03T11:17:09.590Z,15.33
2018-10-03T11:18:19.786Z,15
2018-10-03T11:19:30.004Z,14.66
2018-10-03T11:20:40.464Z,14.16
2018-10-03T11:21:50.855Z,13.82
2018-10-03T11:23:01.087Z,13.55
2018-10-03T11:24:11.343Z,13.23
2018-10-03T11:25:21.626Z,13.04
2018-10-03T11:26:31.809Z,12.82
2018-10-03T11:27:42.200Z,12.96
2018-10-03T11:28:52.551Z,13.15
2018-10-03T11:30:02.518Z,13.56
2018-10-03T11:31:12.723Z,14.03
2018-10-03T11:32:23.083Z,14.34
2018-10-03T11:33:33.290Z,14.8
2018-10-03T11:34:43.454Z,15.24
2018-10-03T11:35:53.669Z,15.53
2018-10-03T11:37:03.830Z,15.91
2018-10-03T11:38:14.186Z,16.31
2018-10-03T11:39:24.626Z,16.49
2018-10-03T11:40:34.838Z,16.74
2018-10-03T11:41:45.011Z,16.91
2018-10-03T11:42:55.193Z,17.09
2018-10-03T11:44:05.512Z,17.11
2018-10-03T11:45:15.438Z,17.2
2018-10-03T11:46:25.441Z,17.46
2018-10-03T11:47:35.897Z,17.6
2018-10-03T11:48:46.354Z,17.87
2018-10-03T11:49:56.650Z,17.97
2018-10-03T11:51:06.816Z,18.17
2018-10-03T11:52:16.993Z,18.3
2018-10-03T11:53:27.177Z,18.12
2018-10-03T11:54:37.215Z,17.92
2018-10-03T11:55:47.586Z,17.72
2018-10-03T11:56:57.836Z,17.61
2018-10-03T11:58:08.323Z,17.31
2018-10-03T11:59:18.618Z,17.27
2018-10-03T12:00:28.939Z,16.99
2018-10-03T12:01:38.884Z,16.64
2018-10-03T12:02:49.336Z,16.42
2018-10-03T12:04:01.093Z,16.02
2018-10-03T12:05:10.648Z,15.79
2018-10-03T12:06:21.098Z,15.58
2018-10-03T12:07:31.723Z,15.32
2018-10-03T12:08:42.216Z,15.25
2018-10-03T12:09:52.393Z,15.09
2018-10-03T12:11:02.680Z,14.96
2018-10-03T12:12:12.875Z,15
2018-10-03T12:13:23.088Z,14.95
2018-10-03T12:14:33.356Z,14.93
2018-10-03T12:15:43.505Z,14.88
2018-10-03T12:16:53.743Z,14.9
2018-10-03T12:18:04.014Z,14.88
2018-10-03T12:19:14.652Z,14.93
2018-10-03T12:20:24.863Z,14.81
2018-10-03T12:21:35.844Z,14.72
2018-10-03T12:22:46.300Z,14.67
2018-10-03T12:23:56.203Z,14.74
2018-10-03T12:25:06.504Z,14.52
2018-10-03T12:26:16.876Z,14.51
2018-10-03T12:27:27.176Z,14.37
2018-10-03T12:28:37.449Z,14.36
2018-10-03T12:29:47.780Z,14.43
2018-10-03T12:30:57.749Z,14.43
2018-10-03T12:32:08.013Z,14.52
2018-10-03T12:33:18.292Z,14.65
2018-10-03T12:34:28.720Z,14.83
2018-10-03T12:35:38.921Z,14.91
2018-10-03T12:36:49.146Z,15.23
2018-10-03T12:37:59.116Z,15.35
2018-10-03T12:39:09.387Z,15.61
2018-10-03T12:40:19.524Z,15.66
2018-10-03T12:41:29.754Z,15.87
2018-10-03T12:42:39.951Z,15.99
2018-10-03T12:43:50.244Z,16.01
2018-10-03T12:45:00.791Z,16.06
2018-10-03T12:46:11.174Z,16.14
2018-10-03T12:47:21.351Z,16.31
2018-10-03T12:48:31.789Z,16.32
2018-10-03T12:49:42.033Z,16.34
2018-10-03T12:50:52.439Z,16.17
2018-10-03T12:52:02.847Z,16.2
2018-10-03T12:53:12.678Z,16.13
2018-10-03T12:54:22.863Z,16.02
2018-10-03T12:55:33.089Z,15.8
2018-10-03T12:56:43.360Z,15.66
2018-10-03T12:57:54.021Z,15.57
2018-10-03T12:59:04.202Z,15.25
2018-10-03T13:00:14.410Z,15.02
2018-10-03T13:01:25.148Z,14.63
2018-10-03T13:02:35.423Z,14.1
2018-10-03T13:03:45.622Z,13.64
2018-10-03T13:04:55.888Z,13.34
2018-10-03T13:06:06.183Z,13.08
2018-10-03T13:07:16.435Z,12.8
2018-10-03T13:08:26.607Z,12.56
2018-10-03T13:09:36.767Z,12.34
2018-10-03T13:10:46.972Z,12.31
2018-10-03T13:11:57.169Z,12.08
2018-10-03T13:13:06.764Z,12.02
2018-10-03T13:14:17.385Z,11.98
2018-10-03T13:15:27.202Z,11.86
2018-10-03T13:16:37.545Z,11.9
2018-10-03T13:17:47.882Z,11.9
2018-10-03T13:18:59.099Z,11.89
2018-10-03T13:20:09.134Z,11.89
2018-10-03T13:21:19.370Z,11.89
2018-10-03T13:22:29.543Z,11.83
2018-10-03T13:23:39.861Z,11.91
2018-10-03T13:24:50.072Z,11.97
2018-10-03T13:26:00.323Z,12.11
2018-10-03T13:27:10.537Z,12.08
2018-10-03T13:28:20.790Z,12.05
2018-10-03T13:29:30.999Z,12.08
2018-10-03T13:30:41.281Z,12.27
2018-10-03T13:31:51.932Z,12.11
2018-10-03T13:33:02.114Z,12.26
2018-10-03T13:34:12.057Z,12.32
2018-10-03T13:35:22.237Z,12.26
2018-10-03T13:36:32.506Z,12.24
2018-10-03T13:37:42.777Z,12.26
2018-10-03T13:38:53.069Z,12.27
2018-10-03T13:40:03.336Z,12.24
2018-10-03T13:41:13.513Z,12.27
2018-10-03T13:42:24.045Z,12.35
2018-10-03T13:43:34.224Z,12.39
2018-10-03T13:44:44.437Z,12.42
2018-10-03T13:45:54.659Z,12.38
2018-10-03T13:47:04.897Z,12.38
2018-10-03T13:48:15.090Z,12.39
2018-10-03T13:49:25.341Z,12.37
2018-10-03T13:50:35.508Z,12.38
2018-10-03T13:51:45.700Z,12.24
2018-10-03T13:52:55.871Z,12.32
2018-10-03T13:54:05.725Z,12.34
2018-10-03T13:55:15.560Z,12.24
2018-10-03T13:56:26.037Z,12.32
2018-10-03T13:57:36.473Z,12.41
2018-10-03T13:58:46.944Z,12.44
2018-10-03T13:59:57.144Z,12.42
2018-10-03T14:01:07.112Z,12.41
2018-10-03T14:02:17.092Z,12.38
2018-10-03T14:03:27.359Z,12.24
2018-10-03T14:04:37.659Z,11.99
2018-10-03T14:05:47.650Z,11.97
2018-10-03T14:06:58.091Z,11.77
2018-10-03T14:08:08.296Z,11.57
2018-10-03T14:09:18.496Z,11.48
2018-10-03T14:10:28.418Z,11.43
2018-10-03T14:11:38.319Z,11.35
2018-10-03T14:12:48.653Z,11.43
2018-10-03T14:13:58.847Z,11.45
2018-10-03T14:15:08.776Z,11.49
2018-10-03T14:16:18.952Z,11.61
2018-10-03T14:17:29.158Z,11.72
2018-10-03T14:18:39.849Z,11.74
2018-10-03T14:19:50.431Z,11.77
2018-10-03T14:21:00.330Z,11.89
2018-10-03T14:22:10.593Z,11.89
2018-10-03T14:23:20.386Z,11.99
2018-10-03T14:24:31.805Z,12.07
2018-10-03T14:25:42.146Z,12.15
2018-10-03T14:26:52.526Z,12.24
2018-10-03T14:28:02.493Z,12.23
2018-10-03T14:29:12.549Z,12.23
2018-10-03T14:30:22.877Z,12.2
2018-10-03T14:31:33.115Z,12.19
2018-10-03T14:32:44.262Z,12.23
2018-10-03T14:33:55.862Z,12.15
2018-10-03T14:35:06.337Z,12.16
2018-10-03T14:36:17.551Z,12.05
2018-10-03T14:37:27.725Z,12.11
2018-10-03T14:38:37.959Z,12.11
2018-10-03T14:39:48.652Z,12.09
2018-10-03T14:40:59.337Z,12.08
2018-10-03T14:42:09.257Z,11.98
2018-10-03T14:43:19.680Z,11.91
2018-10-03T14:44:30.011Z,11.9
2018-10-03T14:45:40.274Z,11.77
2018-10-03T14:46:50.663Z,11.79
2018-10-03T14:48:00.853Z,11.69
2018-10-03T14:49:11.071Z,11.74
2018-10-03T14:50:21.046Z,11.72
2018-10-03T14:51:31.283Z,11.66
2018-10-03T14:52:42.121Z,11.62
2018-10-03T14:53:52.400Z,11.69
2018-10-03T14:55:02.223Z,11.62
2018-10-03T14:56:12.456Z,11.59
2018-10-03T14:57:23.056Z,11.58
2018-10-03T14:58:33.566Z,11.57
2018-10-03T14:59:44.247Z,11.52
2018-10-03T15:00:54.448Z,11.49
2018-10-03T15:02:04.738Z,11.48
2018-10-03T15:03:14.928Z,11.58
2018-10-03T15:04:25.111Z,11.59
2018-10-03T15:05:35.402Z,11.49
2018-10-03T15:06:45.326Z,11.49
2018-10-03T15:07:55.505Z,11.5
2018-10-03T15:09:05.679Z,11.49
2018-10-03T15:10:15.938Z,11.43
2018-10-03T15:11:26.133Z,11.43
2018-10-03T15:12:37.405Z,11.45
2018-10-03T15:13:47.784Z,11.33
2018-10-03T15:14:57.950Z,11.42
2018-10-03T15:16:08.120Z,11.43
2018-10-03T15:17:18.328Z,11.39
2018-10-03T15:18:28.029Z,11.3
2018-10-03T15:19:38.304Z,11.46
2018-10-03T15:20:48.133Z,11.39
2018-10-03T15:21:58.349Z,11.45